sensor_id;sensor_type;location;lat;lon;timestamp;P1;durP1;ratioP1;P2;durP2;ratioP2
22679;SDS011;11507;44.858;10.374;2024-02-26T00:01:01;8.20;;;5.25;;
22679;SDS011;11507;44.858;10.374;2024-02-26T00:03:28;9.07;;;5.35;;
22679;SDS011;11507;44.858;10.374;2024-02-26T00:05:54;9.20;;;5.65;;
22679;SDS011;11507;44.858;10.374;2024-02-26T00:08:21;11.43;;;5.00;;
22679;SDS011;11507;44.858;10.374;2024-02-26T00:10:48;8.95;;;5.05;;
22679;SDS011;11507;44.858;10.374;2024-02-26T00:13:14;8.00;;;4.72;;
22679;SDS011;11507;44.858;10.374;2024-02-26T00:15:40;10.88;;;5.18;;
22679;SDS011;11507;44.858;10.374;2024-02-26T00:18:07;7.88;;;4.90;;
22679;SDS011;11507;44.858;10.374;2024-02-26T00:20:33;10.55;;;5.25;;
22679;SDS011;11507;44.858;10.374;2024-02-26T00:22:59;9.43;;;5.18;;
22679;SDS011;11507;44.858;10.374;2024-02-26T00:25:25;8.45;;;4.97;;
22679;SDS011;11507;44.858;10.374;2024-02-26T00:27:51;8.48;;;5.28;;
22679;SDS011;11507;44.858;10.374;2024-02-26T00:30:17;7.60;;;5.10;;
22679;SDS011;11507;44.858;10.374;2024-02-26T00:32:44;10.13;;;6.65;;
22679;SDS011;11507;44.858;10.374;2024-02-26T00:35:10;11.02;;;6.05;;
22679;SDS011;11507;44.858;10.374;2024-02-26T00:37:36;10.82;;;5.90;;
22679;SDS011;11507;44.858;10.374;2024-02-26T00:40:02;8.15;;;4.95;;
22679;SDS011;11507;44.858;10.374;2024-02-26T00:42:29;9.23;;;4.95;;
22679;SDS011;11507;44.858;10.374;2024-02-26T00:44:55;8.35;;;4.90;;
22679;SDS011;11507;44.858;10.374;2024-02-26T00:47:21;9.65;;;6.03;;
22679;SDS011;11507;44.858;10.374;2024-02-26T00:49:48;10.60;;;6.35;;
22679;SDS011;11507;44.858;10.374;2024-02-26T00:52:14;8.98;;;6.00;;
22679;SDS011;11507;44.858;10.374;2024-02-26T00:54:40;11.68;;;6.70;;
22679;SDS011;11507;44.858;10.374;2024-02-26T00:57:06;9.35;;;6.57;;
22679;SDS011;11507;44.858;10.374;2024-02-26T00:59:33;8.80;;;5.78;;
22679;SDS011;11507;44.858;10.374;2024-02-26T01:01:59;11.50;;;6.25;;
22679;SDS011;11507;44.858;10.374;2024-02-26T01:04:27;9.50;;;6.13;;
22679;SDS011;11507;44.858;10.374;2024-02-26T01:06:53;10.10;;;6.82;;
22679;SDS011;11507;44.858;10.374;2024-02-26T01:09:20;11.10;;;6.90;;
22679;SDS011;11507;44.858;10.374;2024-02-26T01:11:46;11.40;;;6.80;;
22679;SDS011;11507;44.858;10.374;2024-02-26T01:14:12;10.45;;;6.80;;
22679;SDS011;11507;44.858;10.374;2024-02-26T01:16:39;9.80;;;6.40;;
22679;SDS011;11507;44.858;10.374;2024-02-26T01:19:05;8.30;;;6.03;;
22679;SDS011;11507;44.858;10.374;2024-02-26T01:21:31;9.45;;;6.22;;
22679;SDS011;11507;44.858;10.374;2024-02-26T01:23:57;10.40;;;6.60;;
22679;SDS011;11507;44.858;10.374;2024-02-26T01:26:24;10.32;;;6.78;;
22679;SDS011;11507;44.858;10.374;2024-02-26T01:28:50;10.43;;;6.80;;
22679;SDS011;11507;44.858;10.374;2024-02-26T01:31:16;9.95;;;6.28;;
22679;SDS011;11507;44.858;10.374;2024-02-26T01:33:43;12.60;;;6.55;;
22679;SDS011;11507;44.858;10.374;2024-02-26T01:36:09;11.05;;;7.03;;
22679;SDS011;11507;44.858;10.374;2024-02-26T01:38:35;11.90;;;7.68;;
22679;SDS011;11507;44.858;10.374;2024-02-26T01:41:02;13.70;;;7.55;;
22679;SDS011;11507;44.858;10.374;2024-02-26T01:43:28;12.30;;;7.30;;
22679;SDS011;11507;44.858;10.374;2024-02-26T01:45:55;10.38;;;6.95;;
22679;SDS011;11507;44.858;10.374;2024-02-26T01:48:21;13.02;;;7.72;;
22679;SDS011;11507;44.858;10.374;2024-02-26T01:50:48;11.63;;;6.95;;
22679;SDS011;11507;44.858;10.374;2024-02-26T01:53:14;11.68;;;7.57;;
22679;SDS011;11507;44.858;10.374;2024-02-26T01:55:41;10.80;;;6.50;;
22679;SDS011;11507;44.858;10.374;2024-02-26T01:58:08;12.25;;;6.70;;
22679;SDS011;11507;44.858;10.374;2024-02-26T02:00:35;10.02;;;6.45;;
22679;SDS011;11507;44.858;10.374;2024-02-26T02:03:02;10.07;;;6.60;;
22679;SDS011;11507;44.858;10.374;2024-02-26T02:05:30;12.40;;;6.95;;
22679;SDS011;11507;44.858;10.374;2024-02-26T02:07:57;10.30;;;6.15;;
22679;SDS011;11507;44.858;10.374;2024-02-26T02:10:23;10.35;;;6.38;;
22679;SDS011;11507;44.858;10.374;2024-02-26T02:12:52;9.30;;;6.55;;
22679;SDS011;11507;44.858;10.374;2024-02-26T02:15:18;9.95;;;5.72;;
22679;SDS011;11507;44.858;10.374;2024-02-26T02:17:45;10.05;;;6.20;;
22679;SDS011;11507;44.858;10.374;2024-02-26T02:20:15;10.73;;;6.30;;
22679;SDS011;11507;44.858;10.374;2024-02-26T02:22:45;9.60;;;5.82;;
22679;SDS011;11507;44.858;10.374;2024-02-26T02:25:12;7.38;;;4.70;;
22679;SDS011;11507;44.858;10.374;2024-02-26T02:27:39;8.90;;;5.22;;
22679;SDS011;11507;44.858;10.374;2024-02-26T02:30:07;8.27;;;5.28;;
22679;SDS011;11507;44.858;10.374;2024-02-26T02:32:34;9.35;;;5.22;;
22679;SDS011;11507;44.858;10.374;2024-02-26T02:35:03;10.30;;;6.05;;
22679;SDS011;11507;44.858;10.374;2024-02-26T02:37:30;10.48;;;5.90;;
22679;SDS011;11507;44.858;10.374;2024-02-26T02:39:56;10.55;;;5.88;;
22679;SDS011;11507;44.858;10.374;2024-02-26T02:42:23;10.13;;;6.22;;
22679;SDS011;11507;44.858;10.374;2024-02-26T02:44:50;11.18;;;5.55;;
22679;SDS011;11507;44.858;10.374;2024-02-26T02:47:16;11.73;;;6.00;;
22679;SDS011;11507;44.858;10.374;2024-02-26T02:49:43;8.95;;;5.32;;
22679;SDS011;11507;44.858;10.374;2024-02-26T02:52:09;10.55;;;5.68;;
22679;SDS011;11507;44.858;10.374;2024-02-26T02:54:35;10.93;;;6.45;;
22679;SDS011;11507;44.858;10.374;2024-02-26T02:57:03;11.43;;;6.60;;
22679;SDS011;11507;44.858;10.374;2024-02-26T02:59:30;11.35;;;7.05;;
22679;SDS011;11507;44.858;10.374;2024-02-26T03:01:56;12.60;;;7.57;;
22679;SDS011;11507;44.858;10.374;2024-02-26T03:04:22;16.35;;;7.72;;
22679;SDS011;11507;44.858;10.374;2024-02-26T03:06:48;11.48;;;7.40;;
22679;SDS011;11507;44.858;10.374;2024-02-26T03:09:15;12.18;;;7.32;;
22679;SDS011;11507;44.858;10.374;2024-02-26T03:11:41;13.77;;;7.15;;
22679;SDS011;11507;44.858;10.374;2024-02-26T03:14:07;11.32;;;7.32;;
22679;SDS011;11507;44.858;10.374;2024-02-26T03:16:35;12.20;;;7.05;;
22679;SDS011;11507;44.858;10.374;2024-02-26T03:19:01;10.60;;;6.60;;
22679;SDS011;11507;44.858;10.374;2024-02-26T03:21:28;11.32;;;7.15;;
22679;SDS011;11507;44.858;10.374;2024-02-26T03:23:55;12.57;;;7.05;;
22679;SDS011;11507;44.858;10.374;2024-02-26T03:26:22;11.25;;;7.20;;
22679;SDS011;11507;44.858;10.374;2024-02-26T03:28:49;11.75;;;7.43;;
22679;SDS011;11507;44.858;10.374;2024-02-26T03:31:15;13.15;;;7.93;;
22679;SDS011;11507;44.858;10.374;2024-02-26T03:33:41;11.88;;;7.45;;
22679;SDS011;11507;44.858;10.374;2024-02-26T03:36:07;14.40;;;8.65;;
22679;SDS011;11507;44.858;10.374;2024-02-26T03:38:34;15.50;;;9.90;;
22679;SDS011;11507;44.858;10.374;2024-02-26T03:41:00;18.83;;;11.23;;
22679;SDS011;11507;44.858;10.374;2024-02-26T03:43:26;18.48;;;12.32;;
22679;SDS011;11507;44.858;10.374;2024-02-26T03:45:53;21.38;;;13.18;;
22679;SDS011;11507;44.858;10.374;2024-02-26T03:48:19;25.33;;;13.40;;
22679;SDS011;11507;44.858;10.374;2024-02-26T03:50:45;20.48;;;12.75;;
22679;SDS011;11507;44.858;10.374;2024-02-26T03:53:12;20.60;;;12.32;;
22679;SDS011;11507;44.858;10.374;2024-02-26T03:55:38;18.92;;;12.35;;
22679;SDS011;11507;44.858;10.374;2024-02-26T03:58:07;19.70;;;13.45;;
22679;SDS011;11507;44.858;10.374;2024-02-26T04:00:34;22.20;;;13.65;;
22679;SDS011;11507;44.858;10.374;2024-02-26T04:03:00;18.67;;;12.02;;
22679;SDS011;11507;44.858;10.374;2024-02-26T04:05:27;18.25;;;12.55;;
22679;SDS011;11507;44.858;10.374;2024-02-26T04:07:53;24.95;;;14.82;;
22679;SDS011;11507;44.858;10.374;2024-02-26T04:10:19;22.15;;;14.20;;
22679;SDS011;11507;44.858;10.374;2024-02-26T04:12:46;21.42;;;14.40;;
22679;SDS011;11507;44.858;10.374;2024-02-26T04:15:12;22.60;;;14.50;;
22679;SDS011;11507;44.858;10.374;2024-02-26T04:17:39;26.67;;;15.70;;
22679;SDS011;11507;44.858;10.374;2024-02-26T04:20:06;21.83;;;14.57;;
22679;SDS011;11507;44.858;10.374;2024-02-26T04:22:33;25.25;;;15.25;;
22679;SDS011;11507;44.858;10.374;2024-02-26T04:24:59;26.45;;;16.08;;
22679;SDS011;11507;44.858;10.374;2024-02-26T04:27:26;24.42;;;15.60;;
22679;SDS011;11507;44.858;10.374;2024-02-26T04:29:52;23.77;;;16.33;;
22679;SDS011;11507;44.858;10.374;2024-02-26T04:32:18;25.42;;;16.65;;
22679;SDS011;11507;44.858;10.374;2024-02-26T04:34:45;23.63;;;15.50;;
22679;SDS011;11507;44.858;10.374;2024-02-26T04:37:11;25.08;;;15.90;;
22679;SDS011;11507;44.858;10.374;2024-02-26T04:39:38;29.30;;;15.70;;
22679;SDS011;11507;44.858;10.374;2024-02-26T04:42:04;23.05;;;15.13;;
22679;SDS011;11507;44.858;10.374;2024-02-26T04:44:31;22.95;;;15.65;;
22679;SDS011;11507;44.858;10.374;2024-02-26T04:46:57;25.15;;;16.38;;
22679;SDS011;11507;44.858;10.374;2024-02-26T04:49:23;26.17;;;16.98;;
22679;SDS011;11507;44.858;10.374;2024-02-26T04:51:50;26.42;;;16.55;;
22679;SDS011;11507;44.858;10.374;2024-02-26T04:54:16;25.17;;;17.17;;
22679;SDS011;11507;44.858;10.374;2024-02-26T04:56:42;25.23;;;16.67;;
22679;SDS011;11507;44.858;10.374;2024-02-26T04:59:09;24.48;;;15.57;;
22679;SDS011;11507;44.858;10.374;2024-02-26T05:01:35;26.25;;;16.67;;
22679;SDS011;11507;44.858;10.374;2024-02-26T05:04:02;25.20;;;18.02;;
22679;SDS011;11507;44.858;10.374;2024-02-26T05:06:31;25.73;;;17.45;;
22679;SDS011;11507;44.858;10.374;2024-02-26T05:08:57;29.13;;;18.27;;
22679;SDS011;11507;44.858;10.374;2024-02-26T05:11:23;25.70;;;16.58;;
22679;SDS011;11507;44.858;10.374;2024-02-26T05:13:50;26.40;;;17.95;;
22679;SDS011;11507;44.858;10.374;2024-02-26T05:16:16;29.67;;;18.05;;
22679;SDS011;11507;44.858;10.374;2024-02-26T05:18:42;33.70;;;17.85;;
22679;SDS011;11507;44.858;10.374;2024-02-26T05:21:08;25.63;;;16.90;;
22679;SDS011;11507;44.858;10.374;2024-02-26T05:23:34;28.23;;;18.20;;
22679;SDS011;11507;44.858;10.374;2024-02-26T05:26:01;27.63;;;18.83;;
22679;SDS011;11507;44.858;10.374;2024-02-26T05:28:27;29.60;;;19.58;;
22679;SDS011;11507;44.858;10.374;2024-02-26T05:30:53;28.90;;;19.20;;
22679;SDS011;11507;44.858;10.374;2024-02-26T05:33:20;29.90;;;19.55;;
22679;SDS011;11507;44.858;10.374;2024-02-26T05:35:47;29.60;;;19.13;;
22679;SDS011;11507;44.858;10.374;2024-02-26T05:38:13;27.15;;;19.63;;
22679;SDS011;11507;44.858;10.374;2024-02-26T05:40:39;28.10;;;19.13;;
22679;SDS011;11507;44.858;10.374;2024-02-26T05:43:05;29.75;;;19.30;;
22679;SDS011;11507;44.858;10.374;2024-02-26T05:45:32;27.13;;;18.83;;
22679;SDS011;11507;44.858;10.374;2024-02-26T05:47:58;33.67;;;18.27;;
22679;SDS011;11507;44.858;10.374;2024-02-26T05:50:24;29.17;;;19.27;;
22679;SDS011;11507;44.858;10.374;2024-02-26T05:52:50;27.67;;;19.88;;
22679;SDS011;11507;44.858;10.374;2024-02-26T05:55:17;30.23;;;19.67;;
22679;SDS011;11507;44.858;10.374;2024-02-26T05:57:43;30.65;;;19.92;;
22679;SDS011;11507;44.858;10.374;2024-02-26T06:00:09;32.28;;;21.17;;
22679;SDS011;11507;44.858;10.374;2024-02-26T06:02:38;30.58;;;20.15;;
22679;SDS011;11507;44.858;10.374;2024-02-26T06:05:04;31.98;;;21.45;;
22679;SDS011;11507;44.858;10.374;2024-02-26T06:07:32;34.20;;;22.02;;
22679;SDS011;11507;44.858;10.374;2024-02-26T06:09:58;32.83;;;21.92;;
22679;SDS011;11507;44.858;10.374;2024-02-26T06:12:25;32.92;;;21.17;;
22679;SDS011;11507;44.858;10.374;2024-02-26T06:14:52;32.85;;;20.70;;
22679;SDS011;11507;44.858;10.374;2024-02-26T06:17:18;30.63;;;21.50;;
22679;SDS011;11507;44.858;10.374;2024-02-26T06:19:44;32.65;;;21.27;;
22679;SDS011;11507;44.858;10.374;2024-02-26T06:22:10;31.80;;;19.77;;
22679;SDS011;11507;44.858;10.374;2024-02-26T06:24:36;33.25;;;21.20;;
22679;SDS011;11507;44.858;10.374;2024-02-26T06:27:03;36.38;;;22.60;;
22679;SDS011;11507;44.858;10.374;2024-02-26T06:29:29;35.72;;;22.95;;
22679;SDS011;11507;44.858;10.374;2024-02-26T06:31:55;35.50;;;23.08;;
22679;SDS011;11507;44.858;10.374;2024-02-26T06:34:22;38.72;;;25.27;;
22679;SDS011;11507;44.858;10.374;2024-02-26T06:36:48;36.88;;;23.75;;
22679;SDS011;11507;44.858;10.374;2024-02-26T06:39:14;33.53;;;22.45;;
22679;SDS011;11507;44.858;10.374;2024-02-26T06:41:41;35.15;;;22.38;;
22679;SDS011;11507;44.858;10.374;2024-02-26T06:44:07;34.03;;;23.05;;
22679;SDS011;11507;44.858;10.374;2024-02-26T06:46:34;38.47;;;25.45;;
22679;SDS011;11507;44.858;10.374;2024-02-26T06:49:00;36.05;;;24.92;;
22679;SDS011;11507;44.858;10.374;2024-02-26T06:51:26;37.88;;;24.98;;
22679;SDS011;11507;44.858;10.374;2024-02-26T06:53:52;37.38;;;24.85;;
22679;SDS011;11507;44.858;10.374;2024-02-26T06:56:19;38.35;;;24.92;;
22679;SDS011;11507;44.858;10.374;2024-02-26T06:58:45;39.35;;;25.40;;
22679;SDS011;11507;44.858;10.374;2024-02-26T07:01:12;37.13;;;25.75;;
22679;SDS011;11507;44.858;10.374;2024-02-26T07:03:40;42.80;;;27.08;;
22679;SDS011;11507;44.858;10.374;2024-02-26T07:06:06;40.20;;;26.58;;
22679;SDS011;11507;44.858;10.374;2024-02-26T07:08:34;39.35;;;27.13;;
22679;SDS011;11507;44.858;10.374;2024-02-26T07:11:00;44.05;;;27.95;;
22679;SDS011;11507;44.858;10.374;2024-02-26T07:13:26;45.25;;;29.08;;
22679;SDS011;11507;44.858;10.374;2024-02-26T07:15:52;45.05;;;28.33;;
22679;SDS011;11507;44.858;10.374;2024-02-26T07:18:18;46.72;;;30.27;;
22679;SDS011;11507;44.858;10.374;2024-02-26T07:20:45;48.90;;;31.08;;
22679;SDS011;11507;44.858;10.374;2024-02-26T07:23:12;52.58;;;33.17;;
22679;SDS011;11507;44.858;10.374;2024-02-26T07:25:39;44.83;;;31.17;;
22679;SDS011;11507;44.858;10.374;2024-02-26T07:28:06;50.88;;;32.50;;
22679;SDS011;11507;44.858;10.374;2024-02-26T07:30:32;51.28;;;32.15;;
22679;SDS011;11507;44.858;10.374;2024-02-26T07:32:58;46.83;;;32.00;;
22679;SDS011;11507;44.858;10.374;2024-02-26T07:35:25;47.65;;;31.40;;
22679;SDS011;11507;44.858;10.374;2024-02-26T07:37:52;45.95;;;32.00;;
22679;SDS011;11507;44.858;10.374;2024-02-26T07:40:19;46.75;;;30.88;;
22679;SDS011;11507;44.858;10.374;2024-02-26T07:42:45;47.28;;;30.85;;
22679;SDS011;11507;44.858;10.374;2024-02-26T07:45:11;46.50;;;31.27;;
22679;SDS011;11507;44.858;10.374;2024-02-26T07:47:38;44.80;;;31.33;;
22679;SDS011;11507;44.858;10.374;2024-02-26T07:50:07;44.65;;;30.40;;
22679;SDS011;11507;44.858;10.374;2024-02-26T07:52:34;39.38;;;28.52;;
22679;SDS011;11507;44.858;10.374;2024-02-26T07:55:00;45.65;;;29.58;;
22679;SDS011;11507;44.858;10.374;2024-02-26T07:57:26;45.28;;;29.08;;
22679;SDS011;11507;44.858;10.374;2024-02-26T07:59:53;41.75;;;27.48;;
22679;SDS011;11507;44.858;10.374;2024-02-26T08:02:20;42.88;;;27.48;;
22679;SDS011;11507;44.858;10.374;2024-02-26T08:04:47;42.00;;;28.33;;
22679;SDS011;11507;44.858;10.374;2024-02-26T08:07:13;40.47;;;26.98;;
22679;SDS011;11507;44.858;10.374;2024-02-26T08:09:40;38.30;;;25.35;;
22679;SDS011;11507;44.858;10.374;2024-02-26T08:12:06;35.80;;;24.15;;
22679;SDS011;11507;44.858;10.374;2024-02-26T08:14:33;33.50;;;23.10;;
22679;SDS011;11507;44.858;10.374;2024-02-26T08:16:59;32.33;;;21.73;;
22679;SDS011;11507;44.858;10.374;2024-02-26T08:19:26;30.00;;;20.63;;
22679;SDS011;11507;44.858;10.374;2024-02-26T08:21:52;29.60;;;20.02;;
22679;SDS011;11507;44.858;10.374;2024-02-26T08:24:18;30.33;;;19.70;;
22679;SDS011;11507;44.858;10.374;2024-02-26T08:26:45;28.75;;;19.38;;
22679;SDS011;11507;44.858;10.374;2024-02-26T08:29:11;24.92;;;17.70;;
22679;SDS011;11507;44.858;10.374;2024-02-26T08:31:37;25.60;;;17.60;;
22679;SDS011;11507;44.858;10.374;2024-02-26T08:34:04;25.95;;;17.23;;
22679;SDS011;11507;44.858;10.374;2024-02-26T08:36:31;25.40;;;17.52;;
22679;SDS011;11507;44.858;10.374;2024-02-26T08:38:59;27.20;;;17.77;;
22679;SDS011;11507;44.858;10.374;2024-02-26T08:41:25;29.48;;;18.77;;
22679;SDS011;11507;44.858;10.374;2024-02-26T08:43:52;26.90;;;18.73;;
22679;SDS011;11507;44.858;10.374;2024-02-26T08:46:18;26.38;;;18.17;;
22679;SDS011;11507;44.858;10.374;2024-02-26T08:48:44;26.42;;;18.92;;
22679;SDS011;11507;44.858;10.374;2024-02-26T08:51:11;27.65;;;18.65;;
22679;SDS011;11507;44.858;10.374;2024-02-26T08:53:38;27.65;;;18.67;;
22679;SDS011;11507;44.858;10.374;2024-02-26T08:56:05;26.98;;;18.80;;
22679;SDS011;11507;44.858;10.374;2024-02-26T08:58:31;26.55;;;17.60;;
22679;SDS011;11507;44.858;10.374;2024-02-26T09:00:57;25.23;;;17.33;;
22679;SDS011;11507;44.858;10.374;2024-02-26T09:03:24;27.08;;;18.23;;
22679;SDS011;11507;44.858;10.374;2024-02-26T09:05:51;29.83;;;18.60;;
22679;SDS011;11507;44.858;10.374;2024-02-26T09:08:17;30.38;;;19.02;;
22679;SDS011;11507;44.858;10.374;2024-02-26T09:10:44;27.98;;;19.15;;
22679;SDS011;11507;44.858;10.374;2024-02-26T09:13:10;28.83;;;19.40;;
22679;SDS011;11507;44.858;10.374;2024-02-26T09:15:36;27.77;;;19.90;;
22679;SDS011;11507;44.858;10.374;2024-02-26T09:18:03;28.70;;;19.27;;
22679;SDS011;11507;44.858;10.374;2024-02-26T09:20:29;27.08;;;18.75;;
22679;SDS011;11507;44.858;10.374;2024-02-26T09:22:56;27.02;;;18.75;;
22679;SDS011;11507;44.858;10.374;2024-02-26T09:25:22;31.42;;;18.65;;
22679;SDS011;11507;44.858;10.374;2024-02-26T09:27:48;29.05;;;18.05;;
22679;SDS011;11507;44.858;10.374;2024-02-26T09:30:16;25.70;;;17.17;;
22679;SDS011;11507;44.858;10.374;2024-02-26T09:32:45;25.38;;;16.85;;
22679;SDS011;11507;44.858;10.374;2024-02-26T09:35:13;24.83;;;16.45;;
22679;SDS011;11507;44.858;10.374;2024-02-26T09:37:40;23.23;;;15.63;;
22679;SDS011;11507;44.858;10.374;2024-02-26T09:40:08;23.02;;;14.95;;
22679;SDS011;11507;44.858;10.374;2024-02-26T09:42:37;20.50;;;14.10;;
22679;SDS011;11507;44.858;10.374;2024-02-26T09:45:08;19.48;;;13.30;;
22679;SDS011;11507;44.858;10.374;2024-02-26T09:47:38;22.15;;;14.43;;
22679;SDS011;11507;44.858;10.374;2024-02-26T09:50:05;22.08;;;14.20;;
22679;SDS011;11507;44.858;10.374;2024-02-26T09:52:35;20.38;;;14.48;;
22679;SDS011;11507;44.858;10.374;2024-02-26T09:55:04;20.50;;;14.95;;
22679;SDS011;11507;44.858;10.374;2024-02-26T09:57:31;20.30;;;14.50;;
22679;SDS011;11507;44.858;10.374;2024-02-26T09:59:59;21.48;;;14.82;;
22679;SDS011;11507;44.858;10.374;2024-02-26T10:02:29;22.50;;;15.20;;
22679;SDS011;11507;44.858;10.374;2024-02-26T10:04:56;19.38;;;13.85;;
22679;SDS011;11507;44.858;10.374;2024-02-26T10:07:26;17.85;;;12.95;;
22679;SDS011;11507;44.858;10.374;2024-02-26T10:09:55;21.33;;;13.43;;
22679;SDS011;11507;44.858;10.374;2024-02-26T10:12:22;20.77;;;14.15;;
22679;SDS011;11507;44.858;10.374;2024-02-26T10:14:51;22.67;;;12.75;;
22679;SDS011;11507;44.858;10.374;2024-02-26T10:17:17;16.95;;;12.30;;
22679;SDS011;11507;44.858;10.374;2024-02-26T10:19:45;20.27;;;12.98;;
22679;SDS011;11507;44.858;10.374;2024-02-26T10:22:11;16.48;;;11.05;;
22679;SDS011;11507;44.858;10.374;2024-02-26T10:24:38;20.02;;;11.73;;
22679;SDS011;11507;44.858;10.374;2024-02-26T10:27:04;16.70;;;11.68;;
22679;SDS011;11507;44.858;10.374;2024-02-26T10:29:31;17.58;;;12.80;;
22679;SDS011;11507;44.858;10.374;2024-02-26T10:31:57;18.67;;;12.40;;
22679;SDS011;11507;44.858;10.374;2024-02-26T10:34:23;16.55;;;11.88;;
22679;SDS011;11507;44.858;10.374;2024-02-26T10:36:51;18.48;;;12.65;;
22679;SDS011;11507;44.858;10.374;2024-02-26T10:39:17;19.45;;;13.63;;
22679;SDS011;11507;44.858;10.374;2024-02-26T10:41:44;17.83;;;12.25;;
22679;SDS011;11507;44.858;10.374;2024-02-26T10:44:11;18.83;;;12.55;;
22679;SDS011;11507;44.858;10.374;2024-02-26T10:46:40;20.00;;;13.13;;
22679;SDS011;11507;44.858;10.374;2024-02-26T10:49:12;19.00;;;12.32;;
22679;SDS011;11507;44.858;10.374;2024-02-26T10:51:42;20.35;;;12.88;;
22679;SDS011;11507;44.858;10.374;2024-02-26T10:54:12;16.55;;;11.85;;
22679;SDS011;11507;44.858;10.374;2024-02-26T10:56:42;19.05;;;13.60;;
22679;SDS011;11507;44.858;10.374;2024-02-26T10:59:12;19.52;;;12.68;;
22679;SDS011;11507;44.858;10.374;2024-02-26T11:01:39;20.95;;;12.60;;
22679;SDS011;11507;44.858;10.374;2024-02-26T11:04:12;17.75;;;11.20;;
22679;SDS011;11507;44.858;10.374;2024-02-26T11:06:41;15.75;;;10.77;;
22679;SDS011;11507;44.858;10.374;2024-02-26T11:09:08;14.73;;;10.02;;
22679;SDS011;11507;44.858;10.374;2024-02-26T11:11:41;15.50;;;10.25;;
22679;SDS011;11507;44.858;10.374;2024-02-26T11:14:08;15.07;;;9.63;;
22679;SDS011;11507;44.858;10.374;2024-02-26T11:16:35;13.73;;;9.65;;
22679;SDS011;11507;44.858;10.374;2024-02-26T11:19:03;13.65;;;9.70;;
22679;SDS011;11507;44.858;10.374;2024-02-26T11:21:32;14.25;;;9.27;;
22679;SDS011;11507;44.858;10.374;2024-02-26T11:24:07;16.88;;;10.00;;
22679;SDS011;11507;44.858;10.374;2024-02-26T11:26:38;12.70;;;9.25;;
22679;SDS011;11507;44.858;10.374;2024-02-26T11:29:14;12.88;;;9.30;;
22679;SDS011;11507;44.858;10.374;2024-02-26T11:31:44;12.95;;;9.15;;
22679;SDS011;11507;44.858;10.374;2024-02-26T11:34:12;14.15;;;9.13;;
22679;SDS011;11507;44.858;10.374;2024-02-26T11:36:38;13.57;;;9.50;;
22679;SDS011;11507;44.858;10.374;2024-02-26T11:39:04;14.60;;;9.45;;
22679;SDS011;11507;44.858;10.374;2024-02-26T11:41:32;14.73;;;9.70;;
22679;SDS011;11507;44.858;10.374;2024-02-26T11:44:02;14.55;;;9.55;;
22679;SDS011;11507;44.858;10.374;2024-02-26T11:46:33;14.52;;;9.68;;
22679;SDS011;11507;44.858;10.374;2024-02-26T11:51:56;14.40;;;9.43;;
22679;SDS011;11507;44.858;10.374;2024-02-26T11:57:22;14.50;;;9.13;;
22679;SDS011;11507;44.858;10.374;2024-02-26T11:59:56;12.43;;;7.22;;
22679;SDS011;11507;44.858;10.374;2024-02-26T12:02:55;9.98;;;5.93;;
22679;SDS011;11507;44.858;10.374;2024-02-26T12:05:26;9.73;;;5.07;;
22679;SDS011;11507;44.858;10.374;2024-02-26T12:08:04;7.90;;;5.05;;
22679;SDS011;11507;44.858;10.374;2024-02-26T12:10:33;5.90;;;3.60;;
22679;SDS011;11507;44.858;10.374;2024-02-26T12:13:11;5.35;;;3.00;;
22679;SDS011;11507;44.858;10.374;2024-02-26T12:15:42;4.90;;;2.85;;
22679;SDS011;11507;44.858;10.374;2024-02-26T12:18:10;7.30;;;3.28;;
22679;SDS011;11507;44.858;10.374;2024-02-26T12:20:43;5.72;;;3.15;;
22679;SDS011;11507;44.858;10.374;2024-02-26T12:23:14;6.38;;;3.42;;
22679;SDS011;11507;44.858;10.374;2024-02-26T12:25:43;5.13;;;2.80;;
22679;SDS011;11507;44.858;10.374;2024-02-26T12:28:09;5.32;;;2.83;;
22679;SDS011;11507;44.858;10.374;2024-02-26T12:30:36;4.68;;;2.20;;
22679;SDS011;11507;44.858;10.374;2024-02-26T12:33:02;4.07;;;1.92;;
22679;SDS011;11507;44.858;10.374;2024-02-26T12:35:28;4.15;;;2.33;;
22679;SDS011;11507;44.858;10.374;2024-02-26T12:37:57;5.10;;;1.70;;
22679;SDS011;11507;44.858;10.374;2024-02-26T12:40:25;4.43;;;1.90;;
22679;SDS011;11507;44.858;10.374;2024-02-26T12:42:53;3.67;;;1.42;;
22679;SDS011;11507;44.858;10.374;2024-02-26T12:45:20;4.95;;;1.73;;
22679;SDS011;11507;44.858;10.374;2024-02-26T12:47:47;3.28;;;1.70;;
22679;SDS011;11507;44.858;10.374;2024-02-26T12:50:15;7.78;;;1.92;;
22679;SDS011;11507;44.858;10.374;2024-02-26T12:52:44;5.35;;;1.75;;
22679;SDS011;11507;44.858;10.374;2024-02-26T12:55:14;3.05;;;1.80;;
22679;SDS011;11507;44.858;10.374;2024-02-26T12:57:42;4.10;;;2.20;;
22679;SDS011;11507;44.858;10.374;2024-02-26T13:00:11;3.97;;;2.10;;
22679;SDS011;11507;44.858;10.374;2024-02-26T13:02:40;4.93;;;1.92;;
22679;SDS011;11507;44.858;10.374;2024-02-26T13:05:11;5.70;;;2.00;;
22679;SDS011;11507;44.858;10.374;2024-02-26T13:07:42;2.70;;;1.50;;
22679;SDS011;11507;44.858;10.374;2024-02-26T13:10:09;4.05;;;1.65;;
22679;SDS011;11507;44.858;10.374;2024-02-26T13:12:45;4.70;;;1.88;;
22679;SDS011;11507;44.858;10.374;2024-02-26T13:15:17;5.15;;;1.88;;
22679;SDS011;11507;44.858;10.374;2024-02-26T13:17:44;3.80;;;1.70;;
22679;SDS011;11507;44.858;10.374;2024-02-26T13:20:11;3.15;;;1.60;;
22679;SDS011;11507;44.858;10.374;2024-02-26T13:22:40;3.75;;;1.90;;
22679;SDS011;11507;44.858;10.374;2024-02-26T13:25:06;4.43;;;2.00;;
22679;SDS011;11507;44.858;10.374;2024-02-26T13:27:33;4.75;;;2.00;;
22679;SDS011;11507;44.858;10.374;2024-02-26T13:30:10;5.00;;;2.85;;
22679;SDS011;11507;44.858;10.374;2024-02-26T13:32:39;7.57;;;2.83;;
22679;SDS011;11507;44.858;10.374;2024-02-26T13:35:10;6.78;;;2.85;;
22679;SDS011;11507;44.858;10.374;2024-02-26T13:37:38;7.18;;;4.47;;
22679;SDS011;11507;44.858;10.374;2024-02-26T13:40:14;7.22;;;4.47;;
22679;SDS011;11507;44.858;10.374;2024-02-26T13:42:40;6.82;;;4.25;;
22679;SDS011;11507;44.858;10.374;2024-02-26T13:45:07;5.72;;;3.80;;
22679;SDS011;11507;44.858;10.374;2024-02-26T13:47:34;5.57;;;3.25;;
22679;SDS011;11507;44.858;10.374;2024-02-26T13:50:00;5.20;;;2.92;;
22679;SDS011;11507;44.858;10.374;2024-02-26T13:52:27;6.47;;;3.08;;
22679;SDS011;11507;44.858;10.374;2024-02-26T13:54:54;3.92;;;2.63;;
22679;SDS011;11507;44.858;10.374;2024-02-26T13:57:20;5.35;;;2.60;;
22679;SDS011;11507;44.858;10.374;2024-02-26T13:59:46;4.25;;;2.47;;
22679;SDS011;11507;44.858;10.374;2024-02-26T14:02:13;3.63;;;2.42;;
22679;SDS011;11507;44.858;10.374;2024-02-26T14:04:39;5.57;;;3.25;;
22679;SDS011;11507;44.858;10.374;2024-02-26T14:07:05;8.00;;;3.53;;
22679;SDS011;11507;44.858;10.374;2024-02-26T14:09:32;6.55;;;3.97;;
22679;SDS011;11507;44.858;10.374;2024-02-26T14:11:59;8.50;;;4.47;;
22679;SDS011;11507;44.858;10.374;2024-02-26T14:14:29;8.07;;;5.03;;
22679;SDS011;11507;44.858;10.374;2024-02-26T14:17:01;7.90;;;5.10;;
22679;SDS011;11507;44.858;10.374;2024-02-26T14:19:29;12.68;;;6.95;;
22679;SDS011;11507;44.858;10.374;2024-02-26T14:21:55;11.02;;;6.90;;
22679;SDS011;11507;44.858;10.374;2024-02-26T14:24:21;10.52;;;6.70;;